»·PEaware :: AAY591 KSAN-KSFO

AAY591 :: KSAN-KSFO

FLIGHT INFORMATION

Flight Status: Arrived
Operator:
Allegiant Air
More flights by this operator :: More flights under this callsign
Pilot: Ryan B. (8502)
Aircraft: MCDONNELL-DOUGLAS MD-83
(MD83)
More flights by this aircraft type
Origin: KSAN San Diego Intl-Lindbergh
United States
Destination: KSFO San Francisco Intl
United States
More flights between these airports :: More routes between these airports
Route: ECHHO2 IKAYE RIZIN SPLNT STOKD SERFR SERFR2
File this flight plan on PilotEdge
Remarks:
Altitude:
(Current/Filed)
32,000ft
Speed:
(Current/Filed)
448kts
Departed: 26-Oct-17 05:28 PM
Arrived: 26-Oct-17 06:33 PM
Distance/Time
Traveled:
388nm/1:05
Distance/Time
To Go:
Arrived

Flight Plot

Page will automatically refresh every two minutes.

Flight plan parsing failed; only flown route is shown


Map Options




Map Legend


Flown Route
Filed Route
Departure Airport
Arrival Airport
Navaid (VOR, NDB)
Fix

Horizontal Profiles

Position Reports

Time Latitude Longitude Heading Altitude Ground
Speed
26-Oct-17 17:14 32.732880 -117.201685 86 16ft 0kts
26-Oct-17 17:15 32.732880 -117.201685 86 16ft 0kts
26-Oct-17 17:16 32.732880 -117.201685 86 16ft 0kts
26-Oct-17 17:17 32.732880 -117.201685 86 16ft 0kts
26-Oct-17 17:18 32.732880 -117.201685 86 16ft 0kts
26-Oct-17 17:19 32.732880 -117.201685 86 16ft 0kts
26-Oct-17 17:20 32.732880 -117.201685 86 16ft 0kts
26-Oct-17 17:21 32.732880 -117.201685 86 16ft 0kts
26-Oct-17 17:22 32.732880 -117.201685 86 16ft 0kts
26-Oct-17 17:23 32.732880 -117.201685 86 16ft 0kts
26-Oct-17 17:24 32.732880 -117.201685 86 16ft 0kts
26-Oct-17 17:25 32.732880 -117.201685 86 16ft 0kts
26-Oct-17 17:26 32.732863 -117.202016 86 16ft 1kts
26-Oct-17 17:27 32.732591 -117.202346 0 16ft 0kts
26-Oct-17 17:28 32.732592 -117.202346 0 16ft 0kts
26-Oct-17 17:29 32.734314 -117.202615 14 16ft 13kts
26-Oct-17 17:30 32.734367 -117.197381 110 16ft 26kts
26-Oct-17 17:31 32.732126 -117.188070 106 17ft 33kts
26-Oct-17 17:32 32.729618 -117.177731 105 20ft 18kts
26-Oct-17 17:33 32.730872 -117.178583 285 21ft 59kts
26-Oct-17 17:34 32.743961 -117.220290 304 1370ft 163kts
26-Oct-17 17:35 32.772565 -117.267803 303 3274ft 225kts
26-Oct-17 17:36 32.821424 -117.317452 344 6646ft 265kts
26-Oct-17 17:37 32.892777 -117.343516 340 9783ft 276kts
26-Oct-17 17:38 32.969771 -117.376308 329 12086ft 319kts
26-Oct-17 17:39 33.041151 -117.450349 318 14498ft 359kts
26-Oct-17 17:40 33.116752 -117.529732 319 16273ft 371kts
26-Oct-17 17:41 33.193190 -117.610567 317 17061ft 377kts
26-Oct-17 17:42 33.270406 -117.695859 319 19903ft 386kts
26-Oct-17 17:43 33.355008 -117.777798 321 22275ft 400kts
26-Oct-17 17:44 33.442657 -117.862598 321 24429ft 413kts
26-Oct-17 17:45 33.531946 -117.951373 314 26372ft 427kts
26-Oct-17 17:46 33.592833 -118.075744 299 28315ft 445kts
26-Oct-17 17:47 33.647607 -118.198128 300 31349ft 443kts
26-Oct-17 17:48 33.705515 -118.326769 300 31933ft 439kts
26-Oct-17 17:49 33.763585 -118.455546 300 31934ft 439kts
26-Oct-17 17:50 33.821442 -118.583547 300 31940ft 439kts
26-Oct-17 17:51 33.878633 -118.709788 300 31940ft 439kts
26-Oct-17 17:52 33.957483 -118.815515 321 31945ft 435kts
26-Oct-17 17:53 34.048946 -118.911332 320 31941ft 438kts
26-Oct-17 17:54 34.139351 -119.009863 313 31941ft 443kts
26-Oct-17 17:55 34.207258 -119.134841 303 31938ft 448kts
26-Oct-17 17:56 34.272563 -119.262562 303 31937ft 447kts
26-Oct-17 17:57 34.338019 -119.390181 304 31937ft 447kts
26-Oct-17 17:58 34.403491 -119.517083 306 31936ft 446kts
26-Oct-17 17:59 34.487066 -119.626503 316 31938ft 444kts
26-Oct-17 18:00 34.572913 -119.733360 316 31934ft 444kts
26-Oct-17 18:01 34.659030 -119.840618 316 31939ft 444kts
26-Oct-17 18:02 34.744794 -119.947320 316 31948ft 444kts
26-Oct-17 18:03 34.831130 -120.054622 316 31954ft 444kts
26-Oct-17 18:04 34.917513 -120.161952 316 31959ft 445kts
26-Oct-17 18:05 35.004068 -120.269347 318 31962ft 447kts
26-Oct-17 18:06 35.091622 -120.377693 319 31962ft 448kts
26-Oct-17 18:07 35.182253 -120.479086 321 31960ft 448kts
26-Oct-17 18:08 35.273844 -120.582284 321 31958ft 447kts
26-Oct-17 18:09 35.364985 -120.684887 321 31952ft 448kts
26-Oct-17 18:10 35.456643 -120.787979 321 31953ft 448kts
26-Oct-17 18:11 35.553219 -120.883113 326 31953ft 445kts
26-Oct-17 18:12 35.651634 -120.975226 326 31953ft 445kts
26-Oct-17 18:13 35.750218 -121.067513 326 31953ft 447kts
26-Oct-17 18:14 35.849005 -121.159922 326 31954ft 448kts
26-Oct-17 18:15 35.948358 -121.252807 326 31991ft 449kts
26-Oct-17 18:16 36.047747 -121.345661 326 31997ft 448kts
26-Oct-17 18:17 36.146706 -121.425910 331 30533ft 446kts
26-Oct-17 18:18 36.249918 -121.506774 331 28255ft 436kts
26-Oct-17 18:19 36.350667 -121.585743 330 26099ft 422kts
26-Oct-17 18:20 36.447363 -121.661518 329 24240ft 403kts
26-Oct-17 18:21 36.539430 -121.733843 328 22393ft 388kts
26-Oct-17 18:22 36.614883 -121.793649 327 20382ft 388kts
26-Oct-17 18:23 36.720247 -121.876852 329 17727ft 379kts
26-Oct-17 18:24 36.817915 -121.915845 346 15686ft 372kts
26-Oct-17 18:25 36.918569 -121.943721 346 13374ft 369kts
26-Oct-17 18:26 36.997776 -121.970883 341 12241ft 347kts
26-Oct-17 18:27 37.087707 -122.006215 342 10718ft 330kts
26-Oct-17 18:28 37.184745 -122.044171 342 9058ft 299kts
26-Oct-17 18:29 37.258314 -122.072974 343 7884ft 289kts
26-Oct-17 18:30 37.320856 -122.097457 343 7045ft 276kts
26-Oct-17 18:31 37.393091 -122.125676 343 5885ft 269kts
26-Oct-17 18:32 37.464048 -122.151375 344 4631ft 260kts
26-Oct-17 18:33 37.531146 -122.173608 336 3260ft 239kts
26-Oct-17 18:34 37.561358 -122.238444 297 2216ft 199kts
26-Oct-17 18:35 37.583894 -122.292158 297 1168ft 146kts
26-Oct-17 18:36 37.601886 -122.335008 296 459ft 136kts
26-Oct-17 18:37 37.618633 -122.374729 296 19ft 93kts
26-Oct-17 18:38 37.620802 -122.383161 119 29ft 10kts

Navigation Log

Ident Type
Flight plan parsing failed, navigation log unavailable